Time;durP1;ratioP1;P1;durP2;ratioP2;P2;SDS_P1;SDS_P2;PMS_P1;PMS_P2;Temp;Humidity;BMP_temperature;BMP_pressure;BME280_temperature;BME280_humidity;BME280_pressure;Samples;Min_cycle;Max_cycle;Signal;HPM_P1;HPM_P2
2022/07/28 00:01:33;;;;;;;4.78;1.60;;;12.90;99.90;;;;;;5012593;28;20208;-54
2022/07/28 00:03:59;;;;;;;6.55;1.95;;;12.90;99.90;;;;;;5035161;28;20040;-52
2022/07/28 00:06:25;;;;;;;4.85;2.15;;;12.90;99.90;;;;;;4999509;28;20459;-53
2022/07/28 00:08:51;;;;;;;4.05;2.00;;;12.80;99.90;;;;;;4992525;28;20120;-54
2022/07/28 00:11:17;;;;;;;4.15;1.95;;;12.80;99.90;;;;;;5015963;28;20044;-54
2022/07/28 00:13:42;;;;;;;5.20;2.00;;;12.80;99.90;;;;;;4998110;28;20044;-54
2022/07/28 00:16:08;;;;;;;2.58;1.70;;;12.80;99.90;;;;;;5012439;28;20407;-54
2022/07/28 00:18:34;;;;;;;4.30;1.73;;;12.70;99.90;;;;;;4995235;28;20135;-54
2022/07/28 00:21:01;;;;;;;6.75;1.98;;;12.70;99.90;;;;;;5028548;28;20534;-54
2022/07/28 00:23:27;;;;;;;4.97;2.22;;;12.70;99.90;;;;;;5035263;28;20041;-53
2022/07/28 00:25:52;;;;;;;4.82;2.13;;;12.70;99.90;;;;;;5031757;28;20060;-54
2022/07/28 00:28:18;;;;;;;3.55;2.05;;;12.70;99.90;;;;;;5012018;28;20068;-54
2022/07/28 00:30:44;;;;;;;4.05;2.28;;;12.70;99.90;;;;;;5013079;28;20175;-52
2022/07/28 00:33:10;;;;;;;3.90;2.00;;;12.70;99.90;;;;;;5031013;28;20044;-52
2022/07/28 00:35:35;;;;;;;3.95;2.33;;;12.60;99.90;;;;;;5012532;28;20056;-53
2022/07/28 00:38:01;;;;;;;2.92;2.15;;;12.60;99.90;;;;;;5035262;28;20048;-52
2022/07/28 00:43:12;;;;;;;5.32;2.63;;;12.60;99.90;;;;;;5015051;28;20407;-52
2022/07/28 00:45:37;;;;;;;4.95;2.90;;;12.50;99.90;;;;;;4984685;28;20045;-54
2022/07/28 00:48:03;;;;;;;6.22;3.22;;;12.50;99.90;;;;;;5020688;28;20037;-54
2022/07/28 00:50:29;;;;;;;2.88;1.98;;;12.50;99.90;;;;;;5002012;28;20041;-54
2022/07/28 00:52:56;;;;;;;4.40;2.25;;;12.50;99.90;;;;;;5000855;28;20060;-54
2022/07/28 00:55:23;;;;;;;2.95;1.83;;;12.50;99.90;;;;;;5028039;28;20068;-54
2022/07/28 00:57:49;;;;;;;5.38;2.28;;;12.50;99.90;;;;;;5031671;28;20118;-54
2022/07/28 01:00:15;;;;;;;4.50;2.13;;;12.60;99.90;;;;;;5012569;28;20040;-55
2022/07/28 01:02:41;;;;;;;4.47;2.30;;;12.60;99.90;;;;;;5011113;28;20047;-55
2022/07/28 01:05:08;;;;;;;4.75;2.13;;;12.60;99.90;;;;;;5034442;28;20037;-54
2022/07/28 01:08:05;;;;;;;3.75;2.42;;;12.60;99.90;;;;;;5019144;28;20056;-53
2022/07/28 01:10:39;;;;;;;4.22;2.20;;;12.60;99.90;;;;;;5028855;28;20041;-55
2022/07/28 01:13:05;;;;;;;2.78;2.28;;;12.60;99.90;;;;;;5032127;28;20384;-54
2022/07/28 01:15:39;;;;;;;5.07;2.65;;;12.60;99.90;;;;;;5031637;28;20056;-51
2022/07/28 01:18:23;;;;;;;4.95;2.05;;;12.60;99.90;;;;;;5031713;28;20037;-51
2022/07/28 01:21:10;;;;;;;5.80;2.67;;;12.60;99.90;;;;;;5027913;28;20637;-51
2022/07/28 01:23:42;;;;;;;3.72;2.63;;;12.60;99.90;;;;;;5013179;28;20063;-54
2022/07/28 01:26:23;;;;;;;4.60;2.65;;;12.60;99.90;;;;;;5010370;28;20045;-51
2022/07/28 01:29:26;;;;;;;5.30;2.40;;;12.60;99.90;;;;;;5020238;28;20086;-54
2022/07/28 01:32:07;;;;;;;4.38;2.08;;;12.60;99.90;;;;;;5029996;28;20491;-53
2022/07/28 01:34:38;;;;;;;5.85;2.17;;;12.60;99.90;;;;;;5029373;28;20128;-52
2022/07/28 01:37:12;;;;;;;3.95;2.35;;;12.60;99.90;;;;;;5010286;28;20044;-52
2022/07/28 01:39:41;;;;;;;3.38;2.38;;;12.60;99.90;;;;;;5025906;28;20496;-54
2022/07/28 01:42:11;;;;;;;3.67;2.28;;;12.60;99.90;;;;;;5024879;28;20045;-54
2022/07/28 01:44:40;;;;;;;4.90;2.30;;;12.60;99.90;;;;;;5016120;28;20451;-54
2022/07/28 01:47:06;;;;;;;4.10;2.25;;;12.50;99.90;;;;;;5033554;28;20106;-53
2022/07/28 01:49:34;;;;;;;4.80;2.22;;;12.50;99.90;;;;;;5011830;28;20053;-51
2022/07/28 01:52:04;;;;;;;4.05;2.50;;;12.50;99.90;;;;;;5028965;28;20044;-51
2022/07/28 01:54:31;;;;;;;3.72;2.28;;;12.50;99.90;;;;;;4999788;28;20119;-54
2022/07/28 01:56:59;;;;;;;3.30;2.38;;;12.50;99.90;;;;;;5033426;28;20037;-52
2022/07/28 01:59:28;;;;;;;5.05;2.67;;;12.40;99.90;;;;;;5012310;28;20037;-53
2022/07/28 02:01:54;;;;;;;4.70;2.30;;;12.40;99.90;;;;;;4996276;28;20083;-51
2022/07/28 02:04:22;;;;;;;4.63;2.13;;;12.40;99.90;;;;;;5029082;28;20301;-54
2022/07/28 02:06:51;;;;;;;3.95;2.53;;;12.40;99.90;;;;;;5012483;28;20053;-54
2022/07/28 02:09:18;;;;;;;4.75;2.60;;;12.40;99.90;;;;;;5009606;28;20107;-54
2022/07/28 02:11:46;;;;;;;5.03;2.60;;;12.40;99.90;;;;;;5030706;28;20499;-55
2022/07/28 02:14:18;;;;;;;5.20;2.63;;;12.40;99.90;;;;;;5027796;28;20108;-54
2022/07/28 02:16:47;;;;;;;5.53;2.80;;;12.30;99.90;;;;;;5008069;28;20033;-51
2022/07/28 02:19:13;;;;;;;4.20;2.53;;;12.30;99.90;;;;;;5011918;28;20175;-51
2022/07/28 02:21:41;;;;;;;4.28;2.38;;;12.30;99.90;;;;;;5021470;28;20103;-56
2022/07/28 02:24:09;;;;;;;6.45;2.50;;;12.30;99.90;;;;;;5029979;28;20087;-53
2022/07/28 02:26:40;;;;;;;3.38;2.53;;;11.80;99.90;;;;;;4996959;28;20507;-54
2022/07/28 02:29:11;;;;;;;3.88;2.80;;;12.30;99.90;;;;;;5012453;28;20041;-51
2022/07/28 02:31:45;;;;;;;6.22;2.40;;;12.20;99.90;;;;;;4994180;28;20518;-54
2022/07/28 02:34:13;;;;;;;5.10;2.70;;;12.20;99.90;;;;;;5014343;28;20049;-52
2022/07/28 02:36:49;;;;;;;4.88;2.97;;;12.20;99.90;;;;;;5028090;28;20032;-54
2022/07/28 02:39:21;;;;;;;4.20;2.65;;;12.10;99.90;;;;;;5033413;28;20122;-54
2022/07/28 02:41:54;;;;;;;5.80;2.90;;;12.10;99.90;;;;;;5028192;28;20041;-54
2022/07/28 02:44:25;;;;;;;3.63;2.17;;;12.10;99.90;;;;;;5013039;28;20426;-54
2022/07/28 02:46:53;;;;;;;4.90;2.42;;;12.10;99.90;;;;;;5031521;28;20128;-54
2022/07/28 02:49:27;;;;;;;3.60;2.33;;;12.10;99.90;;;;;;5036588;28;20057;-54
2022/07/28 02:51:55;;;;;;;2.88;2.22;;;12.10;99.90;;;;;;5016827;28;20056;-54
2022/07/28 02:54:23;;;;;;;3.85;2.80;;;12.10;99.90;;;;;;4999421;28;20102;-54
2022/07/28 02:56:50;;;;;;;4.43;2.88;;;12.10;99.90;;;;;;5021205;28;20048;-51
2022/07/28 02:59:18;;;;;;;4.30;2.13;;;12.10;99.90;;;;;;5037663;28;20029;-53
2022/07/28 03:01:45;;;;;;;5.28;2.60;;;12.20;99.90;;;;;;5039484;28;21586;-54
2022/07/28 03:04:13;;;;;;;3.72;2.63;;;12.10;99.90;;;;;;5039361;28;20053;-53
2022/07/28 03:06:40;;;;;;;3.85;2.40;;;12.10;99.90;;;;;;5032019;28;20473;-53
2022/07/28 03:09:08;;;;;;;4.05;2.88;;;12.10;99.90;;;;;;5035304;28;20045;-52
2022/07/28 03:11:34;;;;;;;4.75;3.40;;;12.10;99.90;;;;;;5015322;28;20049;-53
2022/07/28 03:13:59;;;;;;;4.65;3.63;;;12.00;99.90;;;;;;5016478;28;20102;-53
2022/07/28 03:16:25;;;;;;;5.07;3.28;;;12.00;99.90;;;;;;5020607;28;20079;-53
2022/07/28 03:18:51;;;;;;;5.32;3.47;;;11.90;99.90;;;;;;5030968;28;20483;-54
2022/07/28 03:21:17;;;;;;;4.43;3.53;;;11.90;99.90;;;;;;5033984;28;20059;-54
2022/07/28 03:23:46;;;;;;;6.63;3.45;;;11.90;99.90;;;;;;5017676;28;20051;-56
2022/07/28 03:26:22;;;;;;;5.93;3.72;;;11.80;99.90;;;;;;5005651;28;20037;-54
2022/07/28 03:28:51;;;;;;;6.05;3.17;;;11.80;99.90;;;;;;5032664;28;20045;-54
2022/07/28 03:31:19;;;;;;;8.38;3.30;;;11.90;99.90;;;;;;5011706;28;20052;-54
2022/07/28 03:33:45;;;;;;;8.43;3.33;;;11.90;99.90;;;;;;5017573;28;20071;-54
2022/07/28 03:36:15;;;;;;;7.00;2.85;;;11.90;99.90;;;;;;5006802;28;20056;-54
2022/07/28 03:38:52;;;;;;;6.72;3.45;;;11.90;99.90;;;;;;5015752;28;20512;-54
2022/07/28 03:41:19;;;;;;;5.45;2.97;;;11.90;99.90;;;;;;5044671;28;20040;-54
2022/07/28 03:43:46;;;;;;;7.30;3.72;;;11.90;99.90;;;;;;5042254;28;20110;-55
2022/07/28 03:46:12;;;;;;;5.05;3.08;;;11.90;99.90;;;;;;5023017;28;20417;-55
2022/07/28 03:48:37;;;;;;;3.75;2.80;;;11.80;99.90;;;;;;5024120;28;20045;-54
2022/07/28 03:51:03;;;;;;;6.00;3.78;;;11.80;99.90;;;;;;5039604;28;20215;-54
2022/07/28 03:53:29;;;;;;;7.43;3.17;;;11.80;99.90;;;;;;5024027;28;20049;-55
2022/07/28 03:55:55;;;;;;;5.95;4.22;;;11.80;99.90;;;;;;5024667;28;20052;-53
2022/07/28 03:58:24;;;;;;;7.53;4.00;;;11.80;99.90;;;;;;5007305;28;20068;-52
2022/07/28 04:00:50;;;;;;;6.22;3.72;;;11.70;99.90;;;;;;5030358;28;20186;-53
2022/07/28 04:03:17;;;;;;;7.68;3.97;;;11.80;99.90;;;;;;5030594;28;20047;-53
2022/07/28 04:05:44;;;;;;;6.20;3.28;;;11.80;99.90;;;;;;5009425;28;20072;-54
2022/07/28 04:08:09;;;;;;;10.05;3.65;;;11.80;99.90;;;;;;5023554;28;20102;-51
2022/07/28 04:10:35;;;;;;;4.63;3.15;;;11.70;99.90;;;;;;5009663;28;20041;-52
2022/07/28 04:13:02;;;;;;;6.65;3.80;;;11.80;99.90;;;;;;5021698;28;20037;-53
2022/07/28 04:15:31;;;;;;;4.88;2.80;;;11.80;99.90;;;;;;5021965;28;20032;-54
2022/07/28 04:17:57;;;;;;;7.00;3.63;;;11.80;99.90;;;;;;5026175;28;20507;-53
2022/07/28 04:20:24;;;;;;;4.65;3.10;;;11.70;99.90;;;;;;5023096;28;20045;-54
2022/07/28 04:22:51;;;;;;;6.55;3.80;;;11.70;99.90;;;;;;5023387;28;20045;-54
2022/07/28 04:25:19;;;;;;;5.97;3.45;;;11.70;99.90;;;;;;5017354;28;20067;-54
2022/07/28 04:27:45;;;;;;;8.98;3.90;;;11.60;99.90;;;;;;5038118;28;20897;-55
2022/07/28 04:30:15;;;;;;;10.38;3.90;;;11.60;99.90;;;;;;5018704;28;20045;-52
2022/07/28 04:32:42;;;;;;;6.32;4.00;;;11.60;99.90;;;;;;5036403;28;20080;-55
2022/07/28 04:35:10;;;;;;;5.93;3.50;;;11.60;99.90;;;;;;5039294;28;20495;-54
2022/07/28 04:37:36;;;;;;;5.95;3.50;;;11.60;99.90;;;;;;5026819;28;20075;-54
2022/07/28 04:40:03;;;;;;;6.75;3.72;;;11.60;99.90;;;;;;5026625;28;20458;-54
2022/07/28 04:42:29;;;;;;;4.45;2.67;;;11.60;99.90;;;;;;5017909;28;20139;-54
2022/07/28 04:44:55;;;;;;;6.55;3.80;;;11.60;99.90;;;;;;5022269;22;20102;-53
2022/07/28 04:47:22;;;;;;;5.38;3.53;;;11.70;99.90;;;;;;5012317;28;20160;-55
2022/07/28 04:49:48;;;;;;;6.35;3.63;;;11.70;99.90;;;;;;4993007;28;20079;-55
2022/07/28 04:52:14;;;;;;;6.53;3.35;;;11.70;99.90;;;;;;4995394;28;20068;-53
2022/07/28 04:54:41;;;;;;;11.15;3.22;;;11.60;99.90;;;;;;5014550;28;20106;-55
2022/07/28 04:57:07;;;;;;;8.13;3.75;;;11.70;99.90;;;;;;5013833;28;20041;-55
2022/07/28 04:59:34;;;;;;;6.68;3.40;;;11.70;99.90;;;;;;5012207;28;20049;-55
2022/07/28 05:02:01;;;;;;;6.30;3.10;;;11.70;99.90;;;;;;5011164;28;20472;-55
2022/07/28 05:04:27;;;;;;;6.50;3.90;;;11.80;99.90;;;;;;5013487;28;20057;-55
2022/07/28 05:06:53;;;;;;;6.82;3.20;;;11.80;99.90;;;;;;5023241;28;20445;-54
2022/07/28 05:09:20;;;;;;;8.88;3.97;;;11.90;99.90;;;;;;5004081;28;20116;-55
2022/07/28 05:11:46;;;;;;;7.57;4.05;;;11.90;99.90;;;;;;5006179;28;20539;-54
2022/07/28 05:14:11;;;;;;;5.45;3.80;;;12.00;99.90;;;;;;5007067;28;20055;-55
2022/07/28 05:16:37;;;;;;;7.85;3.67;;;11.90;99.90;;;;;;4993403;28;20037;-55
2022/07/28 05:19:03;;;;;;;8.40;5.88;;;12.00;99.90;;;;;;5006135;28;20982;-55
2022/07/28 05:21:29;;;;;;;7.05;5.10;;;12.10;99.90;;;;;;5009425;28;20611;-52
2022/07/28 05:23:54;;;;;;;9.05;5.20;;;12.10;99.90;;;;;;5001083;28;20173;-52
2022/07/28 05:26:20;;;;;;;9.35;5.03;;;12.10;99.90;;;;;;5010667;28;20190;-53
2022/07/28 05:28:46;;;;;;;6.55;3.38;;;12.20;99.90;;;;;;5011738;28;20485;-54
2022/07/28 05:31:12;;;;;;;3.92;2.88;;;12.30;99.90;;;;;;5012335;28;20037;-56
2022/07/28 05:33:37;;;;;;;4.55;2.92;;;12.40;99.90;;;;;;5026706;28;20385;-56
2022/07/28 05:36:04;;;;;;;6.47;3.03;;;12.60;99.90;;;;;;5025378;28;21668;-57
2022/07/28 05:38:30;;;;;;;7.00;2.63;;;12.70;99.90;;;;;;5010687;28;20087;-56
2022/07/28 05:40:56;;;;;;;5.18;3.30;;;12.90;99.90;;;;;;5027248;28;20055;-54
2022/07/28 05:43:22;;;;;;;8.18;3.67;;;13.10;99.90;;;;;;5012620;28;20057;-53
2022/07/28 05:45:48;;;;;;;7.60;3.35;;;13.20;99.90;;;;;;5024815;28;20102;-53
2022/07/28 05:48:18;;;;;;;6.30;3.92;;;13.20;99.90;;;;;;4996778;28;20037;-56
2022/07/28 05:50:43;;;;;;;6.38;3.58;;;13.30;99.90;;;;;;5014095;28;20121;-55
2022/07/28 05:53:09;;;;;;;5.40;3.38;;;13.40;99.90;;;;;;5013482;28;20178;-56
2022/07/28 05:55:35;;;;;;;4.65;2.97;;;13.50;99.90;;;;;;4995830;28;20079;-55
2022/07/28 05:58:01;;;;;;;7.25;4.68;;;13.60;99.90;;;;;;4994217;28;20467;-55
2022/07/28 06:00:27;;;;;;;7.38;4.28;;;13.70;99.90;;;;;;5022062;28;20029;-55
2022/07/28 06:02:53;;;;;;;6.68;3.83;;;13.90;99.90;;;;;;5021136;28;20509;-53
2022/07/28 06:05:21;;;;;;;5.85;3.17;;;13.80;99.90;;;;;;5006018;28;20061;-56
2022/07/28 06:07:48;;;;;;;4.78;2.20;;;14.10;99.90;;;;;;5018973;28;20202;-53
2022/07/28 06:10:17;;;;;;;10.13;2.72;;;14.20;99.90;;;;;;5018877;28;20076;-56
2022/07/28 06:12:48;;;;;;;6.18;2.65;;;14.30;99.90;;;;;;5022792;28;20138;-55
2022/07/28 06:15:20;;;;;;;3.78;1.63;;;14.40;99.90;;;;;;5002879;28;20063;-55
2022/07/28 06:17:47;;;;;;;3.22;1.60;;;14.50;99.90;;;;;;4998320;28;20431;-53
2022/07/28 06:20:13;;;;;;;8.27;2.85;;;14.70;99.90;;;;;;5025380;28;20399;-53
2022/07/28 06:22:46;;;;;;;5.10;2.10;;;14.80;99.90;;;;;;5012072;28;20044;-52
2022/07/28 06:25:16;;;;;;;;;;;14.90;99.90;;;;;;5035225;28;20044;-57
2022/07/28 06:27:46;;;;;;;6.32;2.38;;;15.00;99.90;;;;;;5017514;28;19932;-56
2022/07/28 06:30:12;;;;;;;4.78;2.42;;;15.10;99.90;;;;;;5016974;28;20029;-56
2022/07/28 06:32:38;;;;;;;3.60;1.98;;;15.20;99.90;;;;;;5017680;28;20079;-56
2022/07/28 06:35:04;;;;;;;3.08;1.70;;;15.20;99.90;;;;;;5001725;28;20438;-56
2022/07/28 06:37:30;;;;;;;5.95;1.90;;;15.40;99.90;;;;;;5035394;28;20408;-56
2022/07/28 06:39:56;;;;;;;1.27;0.80;;;15.40;99.90;;;;;;5035237;28;20033;-56
2022/07/28 06:42:22;;;;;;;4.32;1.10;;;15.50;99.90;;;;;;5018823;28;20041;-56
2022/07/28 06:44:50;;;;;;;6.05;1.48;;;15.50;99.90;;;;;;5022913;28;20063;-54
2022/07/28 06:47:16;;;;;;;2.42;1.00;;;15.60;99.90;;;;;;5038948;28;20442;-52
2022/07/28 06:49:42;;;;;;;4.53;0.93;;;15.70;99.90;;;;;;5017287;28;20166;-57
2022/07/28 06:52:07;;;;;;;3.70;0.98;;;15.70;99.90;;;;;;5006495;28;20073;-56
2022/07/28 06:54:33;;;;;;;3.60;0.90;;;15.70;99.90;;;;;;5008637;28;20125;-53
2022/07/28 06:56:59;;;;;;;1.65;0.90;;;15.70;99.90;;;;;;5024464;28;20048;-54
2022/07/28 06:59:24;;;;;;;4.60;1.77;;;15.80;99.90;;;;;;5022107;28;20041;-57
2022/07/28 07:01:50;;;;;;;2.08;0.73;;;15.90;99.90;;;;;;5024138;28;20056;-56
2022/07/28 07:04:16;;;;;;;2.03;0.77;;;15.90;99.90;;;;;;5043347;28;20052;-57
2022/07/28 07:06:42;;;;;;;3.58;1.05;;;15.90;99.90;;;;;;5001362;28;20094;-56
2022/07/28 07:09:08;;;;;;;5.85;1.20;;;15.90;99.90;;;;;;5021205;28;20040;-56
2022/07/28 07:11:35;;;;;;;2.88;1.17;;;15.90;99.90;;;;;;5017667;28;20068;-55
2022/07/28 07:14:02;;;;;;;3.50;1.00;;;15.90;99.90;;;;;;5018314;28;20072;-57
2022/07/28 07:16:27;;;;;;;6.18;1.45;;;15.90;99.90;;;;;;5006370;28;20056;-55
2022/07/28 07:18:54;;;;;;;5.43;1.35;;;15.90;99.90;;;;;;5012432;28;20480;-57
2022/07/28 07:21:20;;;;;;;3.28;1.23;;;16.00;99.90;;;;;;5012522;28;20108;-57
2022/07/28 07:23:47;;;;;;;8.30;1.42;;;16.00;99.90;;;;;;5010569;28;20399;-56
2022/07/28 07:26:13;;;;;;;4.95;1.00;;;16.10;99.90;;;;;;5003498;28;20487;-57
2022/07/28 07:28:40;;;;;;;6.70;1.65;;;16.20;99.90;;;;;;5015044;28;20041;-56
2022/07/28 07:31:06;;;;;;;3.22;1.00;;;16.20;99.90;;;;;;5016565;28;20052;-57
2022/07/28 07:33:32;;;;;;;3.30;1.20;;;16.30;99.90;;;;;;5013875;28;20045;-55
2022/07/28 07:35:58;;;;;;;2.33;1.00;;;16.40;99.90;;;;;;5012823;28;20045;-55
2022/07/28 07:38:23;;;;;;;4.25;0.88;;;16.40;99.90;;;;;;5013707;28;20044;-56
2022/07/28 07:40:50;;;;;;;3.85;1.08;;;16.50;99.90;;;;;;5011077;28;20123;-57
2022/07/28 07:43:17;;;;;;;3.70;1.05;;;16.50;99.90;;;;;;5018711;28;20386;-56
2022/07/28 07:45:43;;;;;;;5.28;1.30;;;16.50;99.90;;;;;;5001493;28;20119;-56
2022/07/28 07:48:08;;;;;;;4.78;1.13;;;16.60;99.90;;;;;;4998146;28;20596;-56
2022/07/28 07:50:34;;;;;;;2.85;1.08;;;16.60;99.90;;;;;;4995614;28;20060;-56
2022/07/28 07:53:00;;;;;;;2.47;1.10;;;16.50;99.90;;;;;;5008435;28;20278;-54
2022/07/28 07:55:26;;;;;;;3.58;1.00;;;16.50;99.90;;;;;;5019465;28;20729;-53
2022/07/28 07:57:53;;;;;;;4.13;1.20;;;16.50;99.90;;;;;;5015862;28;20120;-57
2022/07/28 08:00:20;;;;;;;3.45;1.20;;;16.50;99.90;;;;;;5038425;28;20044;-57
2022/07/28 08:02:46;;;;;;;2.38;0.90;;;16.60;99.90;;;;;;5035663;28;20101;-56
2022/07/28 08:05:12;;;;;;;2.35;1.10;;;16.60;99.90;;;;;;5013181;28;20421;-53
2022/07/28 08:07:38;;;;;;;4.72;1.10;;;16.70;99.90;;;;;;5031952;28;20048;-55
2022/07/28 08:10:04;;;;;;;4.55;0.70;;;16.70;99.90;;;;;;5017415;28;20755;-55
2022/07/28 08:12:30;;;;;;;3.53;1.05;;;16.80;99.90;;;;;;4998710;28;20112;-56
2022/07/28 08:14:56;;;;;;;3.47;1.55;;;16.80;99.90;;;;;;5024219;28;20051;-56
2022/07/28 08:17:22;;;;;;;3.28;0.90;;;16.80;99.90;;;;;;5007015;28;20075;-56
2022/07/28 08:19:48;;;;;;;4.68;1.20;;;16.80;99.90;;;;;;5016335;28;20041;-57
2022/07/28 08:22:17;;;;;;;2.70;1.10;;;16.80;99.90;;;;;;5009075;28;20059;-56
2022/07/28 08:24:43;;;;;;;3.03;1.05;;;16.70;99.90;;;;;;5011869;28;20052;-56
2022/07/28 08:27:09;;;;;;;2.20;1.10;;;16.70;99.90;;;;;;5027969;28;20032;-55
2022/07/28 08:29:34;;;;;;;2.78;0.98;;;16.70;99.90;;;;;;5009645;28;20048;-54
2022/07/28 08:32:02;;;;;;;2.33;1.02;;;16.70;99.90;;;;;;5030904;28;20087;-55
2022/07/28 08:34:29;;;;;;;1.95;0.98;;;16.70;99.90;;;;;;5032252;28;20122;-56
2022/07/28 08:36:54;;;;;;;5.60;1.17;;;16.70;99.90;;;;;;5011387;28;20033;-56
2022/07/28 08:39:21;;;;;;;3.47;1.10;;;16.70;99.90;;;;;;5013144;28;20043;-55
2022/07/28 08:42:13;;;;;;;2.15;0.98;;;16.60;99.90;;;;;;5013123;28;20053;-56
2022/07/28 08:44:57;;;;;;;5.97;1.40;;;16.60;99.90;;;;;;5018589;28;20051;-57
2022/07/28 08:47:25;;;;;;;2.05;1.05;;;16.80;99.90;;;;;;5029648;28;20041;-55
2022/07/28 08:49:55;;;;;;;5.93;1.13;;;17.00;99.90;;;;;;5016085;28;20041;-55
2022/07/28 08:52:23;;;;;;;5.15;1.27;;;17.30;99.90;;;;;;5012264;28;20094;-56
2022/07/28 08:54:51;;;;;;;3.20;1.02;;;17.60;99.90;;;;;;5015783;28;20053;-55
2022/07/28 08:57:21;;;;;;;5.15;1.30;;;17.90;99.90;;;;;;5014309;28;20265;-56
2022/07/28 08:59:49;;;;;;;4.88;1.77;;;18.00;99.90;;;;;;5017724;28;20495;-58
2022/07/28 09:02:15;;;;;;;4.90;1.60;;;18.40;99.90;;;;;;5022836;28;20041;-57
2022/07/28 09:04:41;;;;;;;6.65;1.10;;;18.70;99.90;;;;;;5015930;28;20036;-56
2022/07/28 09:07:07;;;;;;;1.13;0.80;;;18.90;99.90;;;;;;5002336;28;20419;-56
2022/07/28 09:09:33;;;;;;;2.28;0.88;;;18.90;99.90;;;;;;5014412;28;20048;-55
2022/07/28 09:12:07;;;;;;;1.33;0.90;;;19.10;99.90;;;;;;5018947;28;20045;-56
2022/07/28 09:14:33;;;;;;;4.75;1.40;;;19.10;99.70;;;;;;5030570;28;20337;-57
2022/07/28 09:17:03;;;;;;;7.70;1.75;;;19.10;99.70;;;;;;4995693;28;20047;-56
2022/07/28 09:19:29;;;;;;;3.08;1.10;;;19.10;99.80;;;;;;4999273;28;20069;-55
2022/07/28 09:21:55;;;;;;;3.80;1.42;;;19.30;99.90;;;;;;5031229;28;20468;-57
2022/07/28 09:24:43;;;;;;;3.45;1.13;;;19.50;99.30;;;;;;5009195;28;20043;-56
2022/07/28 09:27:11;;;;;;;2.95;1.42;;;19.70;99.20;;;;;;5012521;28;20045;-57
2022/07/28 09:29:39;;;;;;;3.95;1.02;;;19.80;99.50;;;;;;5015375;28;20052;-53
2022/07/28 09:32:06;;;;;;;3.95;1.10;;;19.80;99.00;;;;;;4997128;28;20056;-58
2022/07/28 09:34:43;;;;;;;2.78;1.35;;;19.50;98.50;;;;;;4994757;28;20175;-55
2022/07/28 09:37:26;;;;;;;1.92;0.88;;;19.40;98.60;;;;;;5004252;28;20408;-56
2022/07/28 09:39:53;;;;;;;3.67;0.98;;;19.50;98.70;;;;;;5015196;28;20041;-58
2022/07/28 09:42:20;;;;;;;3.38;0.80;;;19.60;98.20;;;;;;5009301;28;21482;-53
2022/07/28 09:45:08;;;;;;;2.78;0.80;;;19.60;98.40;;;;;;5027545;28;20400;-55
2022/07/28 09:47:39;;;;;;;3.45;1.20;;;19.80;98.00;;;;;;5013706;28;20558;-57
2022/07/28 09:50:06;;;;;;;8.02;1.38;;;19.70;97.70;;;;;;5010744;28;20489;-56
2022/07/28 09:52:37;;;;;;;4.40;1.10;;;19.60;97.40;;;;;;5026218;28;20056;-55
2022/07/28 09:55:04;;;;;;;2.75;1.20;;;19.60;97.60;;;;;;5010311;28;20119;-55
2022/07/28 09:57:30;;;;;;;2.97;1.30;;;19.70;97.30;;;;;;5009444;28;20494;-58
2022/07/28 09:59:57;;;;;;;4.65;1.42;;;19.70;97.70;;;;;;5014231;28;20041;-54
2022/07/28 10:02:30;;;;;;;4.80;1.40;;;19.90;97.50;;;;;;5005540;28;20535;-55
2022/07/28 10:04:56;;;;;;;3.50;1.00;;;19.80;97.70;;;;;;5007512;28;20040;-55
2022/07/28 10:07:22;;;;;;;2.78;1.00;;;19.70;97.60;;;;;;4994348;28;20048;-55
2022/07/28 10:10:06;;;;;;;4.15;1.10;;;19.60;97.30;;;;;;5018889;28;20086;-56
2022/07/28 10:12:35;;;;;;;3.67;1.02;;;19.50;97.70;;;;;;5032539;28;20039;-56
2022/07/28 10:18:00;;;;;;;1.88;1.17;;;19.40;96.70;;;;;;5027231;28;20945;-55
2022/07/28 10:20:27;;;;;;;3.33;1.30;;;19.50;97.50;;;;;;5010664;28;20045;-55
2022/07/28 10:23:01;;;;;;;3.03;1.40;;;19.40;97.20;;;;;;5010419;28;20049;-57
2022/07/28 10:25:30;;;;;;;6.03;1.20;;;19.50;96.90;;;;;;5006130;28;20047;-55
2022/07/28 10:27:59;;;;;;;2.58;1.30;;;19.30;97.20;;;;;;5026532;28;20083;-57
2022/07/28 10:30:30;;;;;;;2.03;1.30;;;19.40;97.40;;;;;;5012093;28;20067;-57
2022/07/28 10:33:01;;;;;;;2.72;1.20;;;19.50;97.80;;;;;;5012515;28;20029;-55
2022/07/28 10:35:28;;;;;;;3.38;1.40;;;19.30;97.80;;;;;;5012923;28;20063;-54
2022/07/28 10:38:10;;;;;;;3.83;1.50;;;19.20;98.20;;;;;;4995878;28;20503;-54
2022/07/28 10:40:41;;;;;;;3.53;1.33;;;19.20;97.80;;;;;;5014614;28;20503;-55
2022/07/28 10:43:07;;;;;;;5.55;1.65;;;19.20;98.10;;;;;;5002583;28;20198;-55
2022/07/28 10:45:37;;;;;;;3.78;1.52;;;19.30;97.70;;;;;;5030399;22;20063;-57
2022/07/28 10:48:07;;;;;;;3.95;1.50;;;19.10;97.80;;;;;;5068305;28;20048;-54
2022/07/28 10:50:34;;;;;;;4.25;1.30;;;19.10;97.50;;;;;;5067539;28;20044;-54
2022/07/28 10:53:05;;;;;;;3.30;1.55;;;19.00;97.80;;;;;;5081183;28;20139;-54
2022/07/28 10:55:56;;;;;;;2.80;1.30;;;18.90;98.00;;;;;;5061493;28;20040;-54
2022/07/28 10:58:58;;;;;;;3.75;1.33;;;19.00;98.00;;;;;;5055935;28;20032;-54
2022/07/28 11:01:35;;;;;;;4.95;1.35;;;18.90;98.00;;;;;;5069024;28;20052;-54
2022/07/28 11:04:01;;;;;;;2.70;1.42;;;19.00;98.10;;;;;;5070750;28;20047;-53
2022/07/28 11:06:45;;;;;;;2.80;1.25;;;18.90;98.10;;;;;;5065592;28;20563;-54
2022/07/28 11:09:14;;;;;;;3.88;1.67;;;19.00;98.40;;;;;;5052695;28;20096;-55
2022/07/28 11:11:48;;;;;;;3.33;1.40;;;19.00;98.50;;;;;;5074693;28;20066;-55
2022/07/28 11:14:24;;;;;;;5.55;1.70;;;19.10;98.10;;;;;;5089920;28;20079;-55
2022/07/28 11:17:13;;;;;;;5.22;1.60;;;19.30;98.40;;;;;;5069375;28;20315;-54
2022/07/28 11:19:45;;;;;;;2.58;1.35;;;19.30;98.00;;;;;;5065476;28;20285;-55
2022/07/28 11:22:14;;;;;;;2.63;1.13;;;19.40;98.10;;;;;;5064375;28;22326;-54
2022/07/28 11:24:55;;;;;;;4.43;1.30;;;19.40;97.60;;;;;;5071664;28;20051;-55
2022/07/28 11:27:40;;;;;;;5.22;1.60;;;19.30;97.00;;;;;;5067558;28;20038;-54
2022/07/28 11:30:07;;;;;;;6.40;1.67;;;19.20;97.60;;;;;;5069575;28;20040;-55
2022/07/28 11:32:54;;;;;;;3.47;1.45;;;19.20;97.70;;;;;;5068445;28;20052;-55
2022/07/28 11:35:25;;;;;;;4.90;1.27;;;19.20;97.50;;;;;;5063838;28;20286;-55
2022/07/28 11:38:00;;;;;;;2.58;1.25;;;19.10;97.20;;;;;;5073972;28;20039;-53
2022/07/28 11:40:34;;;;;;;6.60;1.40;;;19.10;97.70;;;;;;5044379;28;20550;-53
2022/07/28 11:43:21;;;;;;;4.13;1.25;;;19.10;97.60;;;;;;5070585;28;20440;-55
2022/07/28 11:45:49;;;;;;;3.38;1.60;;;19.00;97.60;;;;;;5070542;28;20044;-55
2022/07/28 11:48:15;;;;;;;4.70;1.55;;;18.90;97.60;;;;;;5066683;28;20795;-52
2022/07/28 11:50:42;;;;;;;2.30;1.10;;;18.80;98.00;;;;;;5055412;28;20047;-56
2022/07/28 11:53:09;;;;;;;3.00;1.08;;;18.80;97.80;;;;;;5064375;28;20240;-54
2022/07/28 11:55:35;;;;;;;4.95;1.10;;;18.80;97.60;;;;;;5068869;28;20040;-53
2022/07/28 11:58:02;;;;;;;1.75;0.90;;;18.80;97.60;;;;;;5068017;28;20039;-54
2022/07/28 12:00:28;;;;;;;2.15;0.95;;;18.70;97.90;;;;;;5041204;28;20044;-56
2022/07/28 12:02:54;;;;;;;3.50;1.13;;;18.60;97.60;;;;;;5061107;28;20399;-55
2022/07/28 12:05:21;;;;;;;4.45;1.00;;;18.60;97.30;;;;;;5070728;28;20066;-53
2022/07/28 12:07:49;;;;;;;3.33;1.10;;;18.50;97.40;;;;;;5071715;28;20032;-55
2022/07/28 12:10:27;;;;;;;2.78;0.80;;;18.50;97.50;;;;;;5050702;28;20348;-52
2022/07/28 12:12:55;;;;;;;2.90;0.95;;;18.40;97.30;;;;;;5067470;28;20044;-55
2022/07/28 12:15:21;;;;;;;5.20;1.02;;;18.40;97.60;;;;;;5073620;28;20559;-52
2022/07/28 12:17:48;;;;;;;2.72;1.15;;;18.40;97.80;;;;;;5081543;28;20192;-51
2022/07/28 12:20:16;;;;;;;1.40;0.90;;;18.50;97.30;;;;;;5080507;28;20494;-52
2022/07/28 12:23:05;;;;;;;3.47;0.88;;;18.50;97.30;;;;;;5081439;28;20062;-55
2022/07/28 12:25:45;;;;;;;2.55;0.85;;;18.40;97.00;;;;;;5076257;28;20041;-54
2022/07/28 12:28:16;;;;;;;2.95;0.90;;;18.40;97.10;;;;;;5081539;28;20050;-53
2022/07/28 12:30:42;;;;;;;3.28;0.90;;;18.50;96.90;;;;;;5076736;28;20047;-51
2022/07/28 12:33:22;;;;;;;2.47;0.90;;;19.00;97.00;;;;;;5082798;28;20040;-54
2022/07/28 12:35:51;;;;;;;1.85;0.80;;;18.50;97.20;;;;;;5074607;28;20047;-54
2022/07/28 12:38:21;;;;;;;4.95;1.10;;;18.60;96.90;;;;;;5080911;28;20378;-54
2022/07/28 12:40:47;;;;;;;2.33;0.90;;;18.70;97.10;;;;;;5079443;28;20040;-53
2022/07/28 12:43:18;;;;;;;1.95;1.00;;;18.80;96.70;;;;;;5078032;28;20044;-55
2022/07/28 12:45:45;;;;;;;2.33;0.80;;;18.90;96.70;;;;;;5072176;28;20097;-56
2022/07/28 12:48:12;;;;;;;1.35;0.70;;;19.00;96.60;;;;;;5072433;28;20394;-52
2022/07/28 12:50:39;;;;;;;2.35;0.85;;;19.10;96.60;;;;;;5073987;28;20040;-53
2022/07/28 12:53:10;;;;;;;2.75;0.95;;;19.20;96.10;;;;;;5080575;28;20090;-51
2022/07/28 12:55:37;;;;;;;0.90;0.68;;;19.10;96.10;;;;;;5056829;28;20047;-54
2022/07/28 12:58:03;;;;;;;2.70;0.73;;;19.30;96.60;;;;;;5073737;28;20065;-52
2022/07/28 13:00:33;;;;;;;4.97;0.90;;;19.50;96.40;;;;;;5074170;28;20036;-52
2022/07/28 13:03:18;;;;;;;2.67;0.90;;;19.60;96.60;;;;;;5072269;28;20028;-55